Time;durP1;ratioP1;P1;durP2;ratioP2;P2;SDS_P1;SDS_P2;PMS_P1;PMS_P2;Temp;Humidity;BMP_temperature;BMP_pressure;BME280_temperature;BME280_humidity;BME280_pressure;Samples;Min_cycle;Max_cycle;Signal;HPM_P1;HPM_P2
2022/05/28 00:00:22;;;;;;;7.47;1.70;;;;;;;11.49;58.82;102092.25;5046908;28;20109;-75
2022/05/28 00:02:48;;;;;;;7.53;1.98;;;;;;;11.48;58.99;102088.78;5045290;28;20025;-75
2022/05/28 00:05:14;;;;;;;7.80;2.10;;;;;;;11.47;58.89;102088.78;5047876;28;20090;-76
2022/05/28 00:07:40;;;;;;;8.43;2.05;;;;;;;11.45;59.07;102090.53;5043345;28;20470;-75
2022/05/28 00:10:07;;;;;;;6.70;2.00;;;;;;;11.45;59.22;102091.41;5046813;28;20024;-76
2022/05/28 00:12:33;;;;;;;10.43;1.90;;;;;;;11.45;58.78;102090.53;5045563;28;20119;-75
2022/05/28 00:14:58;;;;;;;10.05;2.30;;;;;;;11.45;59.34;102082.72;5041861;28;20031;-76
2022/05/28 00:17:24;;;;;;;7.95;2.08;;;;;;;11.43;59.46;102079.28;5042787;28;20036;-75
2022/05/28 00:19:50;;;;;;;6.75;1.90;;;;;;;11.41;59.94;102073.22;5041179;28;20513;-75
2022/05/28 00:22:15;;;;;;;6.80;2.13;;;;;;;11.38;59.64;102071.50;5045986;28;20040;-76
2022/05/28 00:24:40;;;;;;;9.20;2.13;;;;;;;11.38;59.78;102076.69;5040628;28;20041;-75
2022/05/28 00:27:06;;;;;;;7.72;2.05;;;;;;;11.38;59.89;102076.69;5045815;28;20025;-75
2022/05/28 00:29:31;;;;;;;11.93;2.33;;;;;;;11.36;60.03;102078.44;5041166;28;20025;-75
2022/05/28 00:31:56;;;;;;;13.13;2.28;;;;;;;11.35;60.50;102071.53;5042042;28;20039;-75
2022/05/28 00:34:22;;;;;;;8.63;2.00;;;;;;;11.35;60.27;102075.00;5043857;28;20036;-75
2022/05/28 00:36:47;;;;;;;8.35;2.25;;;;;;;11.37;60.17;102074.97;5041523;28;20032;-76
2022/05/28 00:39:13;;;;;;;8.68;2.25;;;;;;;11.35;60.49;102076.75;5044260;28;20111;-74
2022/05/28 00:41:38;;;;;;;8.27;1.90;;;;;;;11.37;60.44;102080.19;5044371;28;20487;-76
2022/05/28 00:44:05;;;;;;;11.60;2.00;;;;;;;11.39;60.49;102065.41;5043249;28;20029;-76
2022/05/28 00:46:31;;;;;;;5.95;2.03;;;;;;;11.40;60.58;102067.13;5048123;28;20491;-75
2022/05/28 00:49:04;;;;;;;9.07;1.80;;;;;;;11.43;60.28;102063.66;5045371;28;20030;-75
2022/05/28 00:51:33;;;;;;;9.75;2.28;;;;;;;11.43;61.00;102054.06;5041593;28;20086;-76
2022/05/28 00:54:02;;;;;;;8.68;2.25;;;;;;;11.45;60.64;102051.44;5042312;28;20025;-75
2022/05/28 00:56:28;;;;;;;7.68;2.20;;;;;;;11.45;60.88;102049.72;5039909;28;20418;-76
2022/05/28 00:58:54;;;;;;;10.63;2.13;;;;;;;11.48;60.89;102054.03;5044359;28;20021;-76
2022/05/28 01:01:22;;;;;;;11.63;2.20;;;;;;;11.48;61.06;102051.41;5040303;28;20103;-75
2022/05/28 01:04:07;;;;;;;9.50;2.42;;;;;;;11.48;60.48;102054.03;5046625;28;20052;-76
2022/05/28 01:06:46;;;;;;;8.00;2.40;;;;;;;11.46;60.92;102059.25;5046064;28;20037;-76
2022/05/28 01:09:22;;;;;;;8.75;2.20;;;;;;;11.46;61.01;102061.00;5042885;28;20124;-76
2022/05/28 01:12:13;;;;;;;10.77;2.08;;;;;;;11.42;61.40;102047.13;5042127;28;20365;-75
2022/05/28 01:14:50;;;;;;;10.07;2.20;;;;;;;11.39;60.92;102048.03;5044353;28;20017;-75
2022/05/28 01:17:47;;;;;;;5.70;1.88;;;;;;;11.36;60.89;102049.78;5047532;28;20024;-75
2022/05/28 01:20:26;;;;;;;7.28;2.10;;;;;;;11.34;61.17;102049.81;5043711;28;20108;-76
2022/05/28 01:23:10;;;;;;;8.30;2.05;;;;;;;11.36;60.95;102047.19;5048829;28;20029;-76
2022/05/28 01:25:55;;;;;;;9.15;2.00;;;;;;;11.34;61.09;102044.59;5048477;28;20049;-76
2022/05/28 01:28:25;;;;;;;8.30;2.50;;;;;;;11.30;61.80;102045.50;5046734;28;20035;-75
2022/05/28 01:30:52;;;;;;;5.97;2.00;;;;;;;11.24;62.63;102049.03;5044893;28;20047;-76
2022/05/28 01:33:19;;;;;;;6.80;2.10;;;;;;;11.23;62.58;102049.06;5046494;28;20086;-76
2022/05/28 01:35:46;;;;;;;10.00;2.10;;;;;;;11.19;62.55;102050.81;5042648;28;20518;-75
2022/05/28 01:38:13;;;;;;;7.57;2.40;;;;;;;11.15;62.73;102058.66;5043668;28;20037;-75
2022/05/28 01:40:40;;;;;;;9.52;2.28;;;;;;;11.13;62.76;102050.00;5042553;28;20549;-75
2022/05/28 01:43:12;;;;;;;8.48;2.10;;;;;;;11.10;62.80;102045.69;5046662;28;20094;-75
2022/05/28 01:45:40;;;;;;;7.03;2.00;;;;;;;11.07;63.06;102049.19;5045773;28;20044;-76
2022/05/28 01:48:07;;;;;;;8.00;2.38;;;;;;;11.09;62.87;102049.19;5051357;28;20040;-75
2022/05/28 01:50:37;;;;;;;9.48;2.30;;;;;;;11.10;63.07;102050.91;5053244;28;20049;-75
2022/05/28 01:53:05;;;;;;;10.77;2.50;;;;;;;11.08;63.17;102042.25;5049363;28;20037;-76
2022/05/28 01:55:35;;;;;;;6.80;2.25;;;;;;;11.08;63.43;102052.66;5050090;28;20028;-75
2022/05/28 01:58:01;;;;;;;6.50;2.03;;;;;;;11.08;63.46;102056.13;5046903;28;20181;-76
2022/05/28 02:00:27;;;;;;;9.95;2.30;;;;;;;11.07;63.23;102051.81;5046878;28;20091;-75
2022/05/28 02:02:56;;;;;;;6.97;2.33;;;;;;;11.04;63.27;102058.75;5047077;28;20082;-75
2022/05/28 02:05:21;;;;;;;7.40;2.38;;;;;;;11.01;63.76;102057.06;5045994;28;20527;-76
2022/05/28 02:07:46;;;;;;;8.00;2.40;;;;;;;11.00;63.80;102049.25;5052760;28;20104;-75
2022/05/28 02:10:16;;;;;;;8.50;2.30;;;;;;;11.01;63.73;102053.59;5051016;28;20047;-75
2022/05/28 02:13:10;;;;;;;6.60;2.08;;;;;;;11.02;62.55;102060.50;5049698;28;20526;-75
2022/05/28 02:15:58;;;;;;;8.90;2.40;;;;;;;10.98;64.18;102051.00;5050565;28;20384;-75
2022/05/28 02:18:39;;;;;;;8.95;2.30;;;;;;;10.94;63.47;102050.16;5048635;28;20040;-75
2022/05/28 02:21:18;;;;;;;7.75;2.30;;;;;;;10.91;63.21;102051.06;5048759;28;20081;-75
2022/05/28 02:23:53;;;;;;;8.43;2.20;;;;;;;10.88;64.00;102048.47;5044281;28;20138;-75
2022/05/28 02:26:35;;;;;;;6.60;2.17;;;;;;;10.85;63.30;102045.88;5049465;28;20025;-75
2022/05/28 02:29:01;;;;;;;9.95;2.03;;;;;;;10.81;64.69;102032.91;5054231;28;20029;-75
2022/05/28 02:31:32;;;;;;;8.93;2.60;;;;;;;10.80;64.67;102028.56;5050809;28;20032;-75
2022/05/28 02:33:58;;;;;;;9.05;2.58;;;;;;;10.82;64.72;102034.63;5051954;28;20021;-74
2022/05/28 02:36:24;;;;;;;5.97;2.17;;;;;;;10.81;64.46;102031.19;5045142;28;20495;-76
2022/05/28 02:38:50;;;;;;;11.57;2.78;;;;;;;10.81;64.65;102027.69;5048227;28;20020;-75
2022/05/28 02:41:17;;;;;;;11.15;2.38;;;;;;;10.81;64.81;102027.69;5047781;28;20043;-75
2022/05/28 02:43:42;;;;;;;8.50;2.25;;;;;;;10.80;64.80;102021.63;5048190;28;20029;-75
2022/05/28 02:46:08;;;;;;;14.70;2.55;;;;;;;10.78;64.97;102026.84;5044259;28;20070;-75
2022/05/28 02:48:34;;;;;;;13.15;2.75;;;;;;;10.77;65.20;102022.50;5046437;28;20025;-75
2022/05/28 02:51:04;;;;;;;12.57;2.50;;;;;;;10.77;64.97;102022.50;5049651;28;20056;-75
2022/05/28 02:53:30;;;;;;;8.23;2.45;;;;;;;10.74;65.43;102009.53;5048714;28;20033;-75
2022/05/28 02:55:55;;;;;;;7.15;2.42;;;;;;;10.74;65.52;102019.06;5048770;28;20104;-75
2022/05/28 02:58:20;;;;;;;6.32;2.22;;;;;;;10.71;65.77;102012.16;5045308;28;20021;-75
2022/05/28 03:00:46;;;;;;;11.20;2.85;;;;;;;10.70;65.93;102012.16;5044925;28;20025;-75
2022/05/28 03:03:11;;;;;;;8.05;2.40;;;;;;;10.69;66.05;102013.91;5045855;28;20097;-75
2022/05/28 03:05:36;;;;;;;10.27;2.30;;;;;;;10.67;66.11;102010.44;5047271;28;20240;-75
2022/05/28 03:08:01;;;;;;;7.38;2.60;;;;;;;10.66;66.34;102013.94;5046385;28;20361;-75
2022/05/28 03:10:27;;;;;;;6.95;2.30;;;;;;;10.65;66.31;102024.34;5046078;28;20029;-75
2022/05/28 03:12:52;;;;;;;8.30;2.58;;;;;;;10.61;66.27;102021.78;5052196;28;20025;-75
2022/05/28 03:15:17;;;;;;;8.80;2.38;;;;;;;10.58;66.45;102021.78;5051256;28;20471;-75
2022/05/28 03:17:43;;;;;;;5.78;2.42;;;;;;;10.53;67.00;102023.53;5045674;28;20028;-75
2022/05/28 03:20:09;;;;;;;5.97;2.20;;;;;;;10.50;67.10;102017.50;5048163;28;20027;-75
2022/05/28 03:22:34;;;;;;;11.75;2.75;;;;;;;10.49;67.48;102029.66;5047408;28;20020;-75
2022/05/28 03:24:59;;;;;;;7.63;2.20;;;;;;;10.49;67.28;102027.06;5045457;28;20052;-75
2022/05/28 03:27:24;;;;;;;13.77;2.60;;;;;;;10.47;67.85;102032.25;5045480;28;20061;-75
2022/05/28 03:29:50;;;;;;;9.45;2.38;;;;;;;10.46;67.71;102033.13;5047858;28;20024;-76
2022/05/28 03:32:15;;;;;;;7.82;2.30;;;;;;;10.47;67.58;102029.66;5044816;28;20480;-76
2022/05/28 03:34:40;;;;;;;6.03;2.25;;;;;;;10.43;67.81;102038.34;5049553;28;20024;-75
2022/05/28 03:37:06;;;;;;;6.82;2.25;;;;;;;10.42;68.01;102026.22;5044968;28;20029;-75
2022/05/28 03:39:31;;;;;;;7.03;2.00;;;;;;;10.40;68.28;102033.19;5045962;28;20027;-75
2022/05/28 03:41:56;;;;;;;7.07;2.22;;;;;;;10.42;68.17;102031.41;5046271;28;20480;-75
2022/05/28 03:44:22;;;;;;;10.52;2.45;;;;;;;10.42;68.35;102036.63;5043151;28;20081;-75
2022/05/28 03:46:47;;;;;;;6.15;2.30;;;;;;;10.40;68.34;102038.41;5044696;28;20435;-76
2022/05/28 03:49:28;;;;;;;9.20;2.42;;;;;;;10.40;67.57;102033.19;5056060;28;20502;-75
2022/05/28 03:51:55;;;;;;;6.90;2.40;;;;;;;10.39;68.43;102034.06;5044740;28;20012;-76
2022/05/28 03:54:21;;;;;;;7.80;2.08;;;;;;;10.39;68.48;102041.88;5047049;28;20499;-75
2022/05/28 03:56:48;;;;;;;8.75;2.42;;;;;;;10.40;68.63;102034.91;5045386;28;20027;-75
2022/05/28 03:59:14;;;;;;;5.78;2.20;;;;;;;10.40;68.83;102042.72;5047168;28;20043;-75
2022/05/28 04:01:39;;;;;;;7.15;2.47;;;;;;;10.39;68.95;102041.88;5042962;28;20091;-75
2022/05/28 04:04:05;;;;;;;6.95;2.42;;;;;;;10.38;69.01;102047.94;5045192;28;20033;-75
2022/05/28 04:06:30;;;;;;;7.57;2.30;;;;;;;10.37;69.33;102046.19;5045212;28;20483;-75
2022/05/28 04:08:56;;;;;;;8.98;2.30;;;;;;;10.38;69.28;102044.41;5045387;28;20024;-75
2022/05/28 04:11:21;;;;;;;10.15;2.63;;;;;;;10.38;69.37;102047.03;5044559;28;20025;-75
2022/05/28 04:13:46;;;;;;;7.90;2.33;;;;;;;10.36;69.65;102052.25;5044378;28;20571;-75
2022/05/28 04:16:13;;;;;;;9.52;2.25;;;;;;;10.36;69.59;102056.56;5047296;28;20052;-75
2022/05/28 04:18:40;;;;;;;7.32;2.40;;;;;;;10.35;69.86;102050.53;5045546;28;20028;-75
2022/05/28 04:21:05;;;;;;;8.10;2.70;;;;;;;10.34;70.06;102048.78;5043995;28;20024;-75
2022/05/28 04:23:31;;;;;;;9.73;2.30;;;;;;;10.36;70.13;102053.97;5049959;28;20098;-75
2022/05/28 04:25:56;;;;;;;8.25;2.53;;;;;;;10.36;70.24;102053.97;5045352;28;20028;-76
2022/05/28 04:28:21;;;;;;;8.70;2.33;;;;;;;10.37;70.56;102055.69;5048466;28;20029;-75
2022/05/28 04:30:46;;;;;;;10.00;2.33;;;;;;;10.37;70.53;102058.31;5046489;28;20027;-75
2022/05/28 04:33:12;;;;;;;9.27;2.10;;;;;;;10.39;71.07;102051.38;5046116;28;20488;-75
2022/05/28 04:35:37;;;;;;;7.88;2.17;;;;;;;10.40;71.14;102056.59;5045250;28;20211;-75
2022/05/28 04:38:02;;;;;;;9.60;2.10;;;;;;;10.43;71.25;102060.91;5043785;28;20029;-75
2022/05/28 04:40:28;;;;;;;5.18;2.10;;;;;;;10.45;71.53;102065.22;5046599;28;20033;-75
2022/05/28 04:42:53;;;;;;;7.00;2.10;;;;;;;10.47;72.14;102060.88;5048051;28;20445;-75
2022/05/28 04:45:18;;;;;;;8.32;1.95;;;;;;;10.51;72.03;102060.88;5046814;28;20040;-75
2022/05/28 04:47:44;;;;;;;9.20;1.70;;;;;;;10.57;72.26;102069.50;5048957;28;20400;-75
2022/05/28 04:50:10;;;;;;;9.07;1.75;;;;;;;10.60;72.40;102061.69;5045600;28;20021;-75
2022/05/28 04:52:36;;;;;;;8.15;1.67;;;;;;;10.66;72.64;102054.72;5045863;28;20024;-75
2022/05/28 04:55:02;;;;;;;9.15;1.60;;;;;;;10.72;72.50;102065.06;5045109;28;20490;-75
2022/05/28 04:57:27;;;;;;;7.63;1.83;;;;;;;10.75;72.36;102060.72;5047452;28;20108;-75
2022/05/28 04:59:52;;;;;;;7.18;1.75;;;;;;;10.80;72.49;102065.91;5044804;28;20094;-75
2022/05/28 05:02:17;;;;;;;6.90;1.70;;;;;;;10.83;72.63;102067.59;5045156;28;20431;-75
2022/05/28 05:04:43;;;;;;;8.02;1.73;;;;;;;10.87;72.93;102058.91;5046313;28;20027;-74
2022/05/28 05:07:08;;;;;;;8.15;1.85;;;;;;;10.91;72.79;102073.63;5047643;28;20056;-75
2022/05/28 05:09:33;;;;;;;10.00;1.73;;;;;;;10.96;72.34;102079.66;5043995;28;20028;-75
2022/05/28 05:11:59;;;;;;;8.23;2.03;;;;;;;10.99;71.86;102071.81;5043792;28;20589;-75
2022/05/28 05:14:24;;;;;;;8.38;1.52;;;;;;;11.02;71.93;102073.53;5046198;28;20031;-75
2022/05/28 05:16:50;;;;;;;7.13;1.60;;;;;;;11.06;71.65;102075.25;5043412;28;20113;-75
2022/05/28 05:19:15;;;;;;;12.77;1.63;;;;;;;11.11;71.34;102075.19;5046505;28;20060;-75
2022/05/28 05:21:40;;;;;;;9.45;1.42;;;;;;;11.12;71.22;102074.31;5044331;28;20037;-75
2022/05/28 05:24:06;;;;;;;6.15;1.58;;;;;;;11.17;70.43;102072.56;5044262;28;20115;-75
2022/05/28 05:26:31;;;;;;;7.93;1.65;;;;;;;11.22;70.00;102081.19;5044647;28;20037;-76
2022/05/28 05:28:56;;;;;;;8.13;1.42;;;;;;;11.23;69.49;102083.78;5047121;28;20111;-76
2022/05/28 05:31:22;;;;;;;5.75;1.15;;;;;;;11.26;70.46;102082.91;5045466;28;20029;-75
2022/05/28 05:33:47;;;;;;;4.53;1.00;;;;;;;11.29;69.44;102082.84;5043036;28;20037;-75
2022/05/28 05:36:12;;;;;;;7.30;1.80;;;;;;;11.33;69.38;102079.34;5043797;28;20052;-75
2022/05/28 05:38:38;;;;;;;5.93;1.42;;;;;;;11.35;68.39;102087.19;5045554;28;20029;-75
2022/05/28 05:41:04;;;;;;;8.48;1.30;;;;;;;11.38;68.41;102082.78;5045997;28;20033;-75
2022/05/28 05:43:29;;;;;;;7.47;1.90;;;;;;;11.42;67.67;102077.56;5045697;28;20083;-75
2022/05/28 05:45:56;;;;;;;6.70;1.20;;;;;;;11.45;68.00;102082.72;5043468;28;20045;-76
2022/05/28 05:48:22;;;;;;;5.82;0.98;;;;;;;11.50;67.87;102080.94;5043421;28;20066;-75
2022/05/28 05:50:47;;;;;;;5.63;0.90;;;;;;;11.53;67.70;102081.75;5041854;28;20064;-75
2022/05/28 05:53:13;;;;;;;4.80;1.20;;;;;;;11.58;67.50;102093.91;5046276;28;20040;-75
2022/05/28 05:55:38;;;;;;;6.22;1.00;;;;;;;11.61;65.81;102091.25;5046708;28;20371;-75
2022/05/28 05:58:04;;;;;;;4.10;0.95;;;;;;;11.65;66.55;102092.97;5042718;28;20472;-75
2022/05/28 06:00:30;;;;;;;7.70;1.10;;;;;;;11.69;65.07;102092.06;5045295;28;20029;-75
2022/05/28 06:02:56;;;;;;;2.65;0.90;;;;;;;11.71;64.24;102099.84;5043790;28;20120;-75
2022/05/28 06:05:21;;;;;;;6.25;1.08;;;;;;;11.71;64.79;102108.53;5043535;28;20042;-75
2022/05/28 06:07:46;;;;;;;3.50;0.85;;;;;;;11.72;65.94;102092.00;5046146;28;20085;-75
2022/05/28 06:10:11;;;;;;;6.22;0.95;;;;;;;11.78;64.63;102091.09;5045212;28;20112;-75
2022/05/28 06:12:37;;;;;;;5.25;1.10;;;;;;;11.86;63.47;102096.25;5046842;28;20040;-75
2022/05/28 06:15:03;;;;;;;8.35;0.90;;;;;;;11.88;63.85;102103.16;5048529;28;20448;-75
2022/05/28 06:17:29;;;;;;;4.43;0.90;;;;;;;11.86;63.03;102097.09;5045863;28;20040;-75
2022/05/28 06:19:54;;;;;;;6.28;0.88;;;;;;;11.89;64.17;102109.22;5048678;28;20033;-76
2022/05/28 06:22:19;;;;;;;4.82;1.00;;;;;;;11.91;64.10;102104.84;5050757;28;20040;-75
2022/05/28 06:24:44;;;;;;;4.20;1.00;;;;;;;11.94;63.39;102103.09;5047913;28;20106;-75
2022/05/28 06:27:10;;;;;;;4.82;1.05;;;;;;;11.94;63.37;102103.09;5048019;28;20444;-75
2022/05/28 06:29:35;;;;;;;3.80;0.80;;;;;;;11.96;64.01;102106.53;5047218;28;20028;-75
2022/05/28 06:32:00;;;;;;;6.38;0.90;;;;;;;11.95;62.00;102102.22;5047305;28;20025;-75
2022/05/28 06:34:26;;;;;;;6.63;0.98;;;;;;;11.93;62.94;102111.78;5051166;28;20021;-75
2022/05/28 06:36:51;;;;;;;6.70;1.02;;;;;;;11.99;61.75;102111.75;5053208;28;20056;-76
2022/05/28 06:39:16;;;;;;;5.32;1.10;;;;;;;12.02;60.19;102120.41;5053061;28;20384;-75
2022/05/28 06:41:42;;;;;;;5.97;0.88;;;;;;;12.08;60.41;102113.38;5050523;28;20392;-76
2022/05/28 06:44:07;;;;;;;5.90;0.90;;;;;;;12.17;61.38;102109.78;5050363;28;20036;-75
2022/05/28 06:46:32;;;;;;;3.70;1.00;;;;;;;12.24;60.85;102116.69;5051455;28;20075;-75
2022/05/28 06:48:58;;;;;;;6.22;0.93;;;;;;;12.28;60.08;102113.16;5053426;28;20113;-76
2022/05/28 06:51:23;;;;;;;3.22;0.73;;;;;;;12.32;58.85;102120.94;5049518;28;20041;-76
2022/05/28 06:53:50;;;;;;;6.93;0.73;;;;;;;12.29;58.78;102114.88;5052073;28;20033;-76
2022/05/28 06:56:17;;;;;;;3.38;0.80;;;;;;;12.29;58.62;102119.22;5046979;28;20502;-76
2022/05/28 06:58:44;;;;;;;3.15;1.20;;;;;;;12.26;58.61;102120.16;5051339;28;20388;-76
2022/05/28 07:01:10;;;;;;;6.80;0.90;;;;;;;12.24;59.90;102131.47;5045780;28;20037;-76
2022/05/28 07:03:36;;;;;;;4.68;0.90;;;;;;;12.22;58.99;102123.66;5049067;28;20020;-76
2022/05/28 07:06:02;;;;;;;3.83;0.65;;;;;;;12.16;58.80;102123.72;5050871;28;20189;-76
2022/05/28 07:08:27;;;;;;;4.57;0.77;;;;;;;12.12;59.57;102127.28;5048804;28;20529;-75
2022/05/28 07:10:58;;;;;;;5.00;0.90;;;;;;;12.11;59.24;102130.75;5048937;28;20116;-75
2022/05/28 07:13:25;;;;;;;4.93;0.90;;;;;;;12.18;59.39;102136.78;5047555;28;20127;-76
2022/05/28 07:15:51;;;;;;;2.40;0.70;;;;;;;12.19;58.28;102128.06;5051078;28;20029;-75
2022/05/28 07:18:17;;;;;;;3.75;0.98;;;;;;;12.20;59.70;102129.78;5052868;28;20379;-75
2022/05/28 07:20:43;;;;;;;4.28;0.80;;;;;;;12.23;57.19;102119.28;5050061;28;20283;-76
2022/05/28 07:23:14;;;;;;;4.38;0.80;;;;;;;12.26;57.48;102125.34;5049482;28;20033;-75
2022/05/28 07:25:41;;;;;;;5.15;0.70;;;;;;;12.36;55.80;102127.84;5048022;28;20030;-76
2022/05/28 07:28:25;;;;;;;5.07;0.82;;;;;;;12.48;56.02;102130.28;5045547;28;20025;-75
2022/05/28 07:31:03;;;;;;;5.50;1.00;;;;;;;12.63;56.38;102128.38;5051101;28;20261;-75
2022/05/28 07:33:31;;;;;;;6.05;0.60;;;;;;;12.73;54.98;102122.13;5048846;28;20037;-77
2022/05/28 07:35:58;;;;;;;4.40;0.80;;;;;;;12.84;56.83;102122.84;5054676;28;20291;-76
2022/05/28 07:38:25;;;;;;;14.50;1.17;;;;;;;12.93;53.36;102123.59;5049271;28;20036;-77
2022/05/28 07:40:51;;;;;;;7.05;0.95;;;;;;;12.99;55.26;102120.88;5053489;28;21470;-76
2022/05/28 07:43:17;;;;;;;3.75;0.70;;;;;;;13.06;53.93;102119.91;5058007;28;20483;-77
2022/05/28 07:45:44;;;;;;;4.05;1.13;;;;;;;13.12;53.85;102126.78;5056801;28;20534;-76
2022/05/28 07:48:11;;;;;;;5.00;1.10;;;;;;;13.15;53.31;102130.19;5055859;28;20034;-77
2022/05/28 07:50:37;;;;;;;3.28;0.73;;;;;;;13.20;54.92;102125.78;5054979;28;20071;-76
2022/05/28 07:53:02;;;;;;;3.03;0.70;;;;;;;13.26;53.92;102144.88;5057452;28;20068;-76
2022/05/28 07:55:28;;;;;;;3.55;0.80;;;;;;;13.20;55.40;102131.00;5051949;28;20480;-76
2022/05/28 07:57:54;;;;;;;4.40;0.90;;;;;;;13.12;53.23;102143.34;5054368;28;20035;-76
2022/05/28 08:00:20;;;;;;;4.47;1.13;;;;;;;12.92;53.67;102129.72;5056582;28;20054;-76
2022/05/28 08:02:45;;;;;;;2.67;0.75;;;;;;;12.80;53.35;102131.63;5051526;28;20115;-76
2022/05/28 08:05:11;;;;;;;3.40;0.95;;;;;;;12.73;54.16;102129.97;5055406;28;20060;-76
2022/05/28 08:07:36;;;;;;;5.18;0.98;;;;;;;12.72;54.56;102118.66;5055498;28;20028;-76
2022/05/28 08:10:03;;;;;;;3.47;0.70;;;;;;;12.72;53.29;102133.47;5053244;28;20025;-76
2022/05/28 08:12:28;;;;;;;3.33;0.70;;;;;;;12.70;53.69;102127.41;5053532;28;20538;-77
2022/05/28 08:14:54;;;;;;;3.60;0.77;;;;;;;12.66;53.87;102128.31;5048820;28;20021;-76
2022/05/28 08:17:19;;;;;;;6.82;0.98;;;;;;;12.62;54.73;102130.13;5050559;28;20052;-76
2022/05/28 08:19:44;;;;;;;6.30;0.95;;;;;;;12.67;54.35;102127.44;5053150;28;20090;-76
2022/05/28 08:24:54;;;;;;;3.97;0.80;;;;;;;12.81;55.47;102128.09;5052225;28;20060;-76
2022/05/28 08:27:19;;;;;;;5.93;0.80;;;;;;;12.97;54.00;102120.06;5055313;28;20029;-76
2022/05/28 08:29:44;;;;;;;2.75;1.10;;;;;;;13.09;53.63;102117.25;5058210;28;20044;-76
2022/05/28 08:32:10;;;;;;;3.72;0.90;;;;;;;13.20;52.17;102112.72;5057143;28;20056;-76
2022/05/28 08:34:35;;;;;;;5.55;0.80;;;;;;;13.31;50.68;102111.69;5055711;28;20032;-76
2022/05/28 08:37:00;;;;;;;5.90;0.93;;;;;;;13.41;52.71;102113.28;5055808;28;20044;-76
2022/05/28 08:39:26;;;;;;;2.85;0.75;;;;;;;13.49;50.35;102126.22;5055782;28;20132;-76
2022/05/28 08:41:57;;;;;;;4.10;0.82;;;;;;;13.53;50.08;102111.31;5053629;28;20028;-76
2022/05/28 08:44:39;;;;;;;4.40;0.70;;;;;;;13.63;50.60;102110.28;5056525;28;20032;-76
2022/05/28 08:47:17;;;;;;;4.15;0.80;;;;;;;13.62;50.08;102114.63;5058608;28;20032;-76
2022/05/28 08:49:45;;;;;;;5.45;1.00;;;;;;;13.59;48.17;102112.06;5052871;28;20044;-76
2022/05/28 08:52:22;;;;;;;4.05;0.82;;;;;;;13.70;49.87;102116.25;5051305;28;20035;-76
2022/05/28 08:54:59;;;;;;;5.32;0.80;;;;;;;13.75;47.67;102123.13;5047571;28;20082;-76
2022/05/28 08:57:36;;;;;;;5.28;0.77;;;;;;;13.80;47.91;102109.97;5049695;28;20091;-76
2022/05/28 09:00:10;;;;;;;3.45;0.90;;;;;;;13.84;47.70;102122.09;5051615;28;20159;-75
2022/05/28 09:02:42;;;;;;;2.42;0.70;;;;;;;13.81;48.16;102128.25;5048340;28;20051;-76
2022/05/28 09:05:30;;;;;;;3.83;0.73;;;;;;;13.83;48.02;102114.28;5047276;28;20051;-76
2022/05/28 09:08:02;;;;;;;3.05;0.80;;;;;;;13.92;48.58;102124.56;5047083;28;20609;-75
2022/05/28 09:10:35;;;;;;;5.32;1.00;;;;;;;13.90;48.60;102115.88;5047677;28;20060;-76
2022/05/28 09:13:32;;;;;;;2.50;0.73;;;;;;;13.77;49.13;102126.59;5043949;28;20355;-75
2022/05/28 09:16:00;;;;;;;4.72;0.90;;;;;;;13.68;49.21;102125.88;5044172;28;20079;-76
2022/05/28 09:18:33;;;;;;;2.75;0.95;;;;;;;13.66;48.38;102115.47;5044525;28;20033;-76
2022/05/28 09:20:59;;;;;;;4.22;0.75;;;;;;;13.72;47.90;102123.19;5044353;28;20045;-76
2022/05/28 09:23:24;;;;;;;5.63;0.82;;;;;;;13.84;46.52;102115.97;5044457;28;20033;-77
2022/05/28 09:25:55;;;;;;;4.47;0.95;;;;;;;13.97;46.29;102117.50;5047023;28;20035;-76
2022/05/28 09:28:33;;;;;;;2.43;0.90;;;;;;;14.11;48.21;102115.47;5048744;28;20029;-76
2022/05/28 09:31:17;;;;;;;4.60;1.10;;;;;;;14.23;48.22;102113.47;5049037;28;20295;-76
2022/05/28 09:34:12;;;;;;;3.90;1.00;;;;;;;14.22;47.35;102106.53;5043862;28;20074;-77
2022/05/28 09:37:06;;;;;;;3.50;0.73;;;;;;;14.21;47.71;102110.91;5043409;28;20032;-76
2022/05/28 09:39:45;;;;;;;3.85;0.90;;;;;;;14.21;49.10;102115.25;5044418;28;20020;-77
2022/05/28 09:42:23;;;;;;;3.72;0.88;;;;;;;14.23;46.53;102106.50;5045452;28;20041;-76
2022/05/28 09:44:51;;;;;;;3.17;0.70;;;;;;;14.30;44.28;102104.63;5039373;28;20040;-81
2022/05/28 09:47:17;;;;;;;2.92;0.90;;;;;;;14.35;44.81;102097.50;5043358;28;20025;-78
2022/05/28 09:50:00;;;;;;;4.25;0.73;;;;;;;14.44;46.24;102100.84;5040204;28;20029;-77
2022/05/28 09:54:16;;;;;;;5.63;0.82;;;;;;;14.51;45.76;102102.44;5047643;28;20038;-75
2022/05/28 09:55:25;;;;;;;3.10;0.73;;;;;;;14.64;45.68;102109.13;5045746;28;20118;-76
2022/05/28 09:58:02;;;;;;;4.68;0.85;;;;;;;14.68;46.43;102099.47;5045409;28;20146;-77
2022/05/28 10:00:28;;;;;;;3.47;0.80;;;;;;;14.70;46.83;102093.28;5046714;28;20369;-77
2022/05/28 10:05:49;;;;;;;3.45;0.70;;;;;;;14.63;44.55;102096.03;5041673;28;20454;-77
2022/05/28 10:08:15;;;;;;;3.72;1.02;;;;;;;14.70;44.92;102092.44;5048271;28;20739;-77
2022/05/28 10:10:40;;;;;;;3.78;0.80;;;;;;;14.82;44.42;102091.28;5047914;28;20024;-77
2022/05/28 10:13:18;;;;;;;1.67;0.60;;;;;;;14.91;44.67;102088.44;5048160;28;20677;-76
2022/05/28 10:15:51;;;;;;;4.70;0.60;;;;;;;15.01;43.29;102089.06;5047660;28;20084;-77
2022/05/28 10:18:21;;;;;;;4.18;0.82;;;;;;;15.05;42.62;102090.72;5046154;28;20029;-77
2022/05/28 10:21:06;;;;;;;3.65;0.82;;;;;;;14.94;43.66;102101.47;5047352;28;20039;-77
2022/05/28 10:23:34;;;;;;;5.28;1.48;;;;;;;14.83;43.20;102093.00;5048402;28;20514;-75
2022/05/28 10:26:00;;;;;;;4.13;0.80;;;;;;;14.83;41.63;102093.00;5045589;28;20040;-76
2022/05/28 10:28:31;;;;;;;5.90;1.20;;;;;;;14.86;42.59;102092.91;5052324;28;20032;-77
2022/05/28 10:30:57;;;;;;;3.33;0.65;;;;;;;14.89;40.02;102100.72;5056326;28;20969;-76
2022/05/28 10:33:26;;;;;;;3.78;0.85;;;;;;;14.90;40.61;102085.88;5053429;28;20111;-76
2022/05/28 10:35:52;;;;;;;2.40;0.60;;;;;;;14.90;40.50;102094.56;5059017;28;20487;-76
2022/05/28 10:38:27;;;;;;;4.38;0.70;;;;;;;14.96;41.65;102089.19;5056005;28;20032;-76
2022/05/28 10:41:01;;;;;;;3.85;0.77;;;;;;;15.01;40.96;102083.84;5054689;28;20035;-77
2022/05/28 10:43:26;;;;;;;2.80;0.70;;;;;;;15.06;37.23;102088.97;5057573;28;20125;-76
2022/05/28 10:46:05;;;;;;;2.35;0.68;;;;;;;15.07;38.52;102077.56;5053494;28;20194;-76
2022/05/28 10:48:46;;;;;;;3.85;0.80;;;;;;;15.08;39.51;102095.03;5052471;28;20082;-76
2022/05/28 10:51:30;;;;;;;4.13;0.75;;;;;;;15.13;41.42;102086.16;5058362;28;20036;-76
2022/05/28 10:54:01;;;;;;;4.90;0.93;;;;;;;15.17;40.53;102086.94;5052367;28;21284;-76
2022/05/28 10:56:51;;;;;;;4.65;0.70;;;;;;;15.20;39.53;102081.59;5047387;28;20033;-76
2022/05/28 10:59:48;;;;;;;3.20;0.77;;;;;;;15.28;41.89;102074.41;5053688;28;20051;-76
2022/05/28 11:02:45;;;;;;;3.80;0.80;;;;;;;15.32;40.71;102078.69;5051883;28;20143;-76
2022/05/28 11:05:49;;;;;;;4.90;0.82;;;;;;;15.29;41.55;102070.91;5049574;28;20061;-77
2022/05/28 11:08:38;;;;;;;4.75;0.82;;;;;;;15.23;41.16;102081.53;5049616;28;20028;-76
2022/05/28 11:11:09;;;;;;;4.72;0.90;;;;;;;15.12;41.79;102088.81;5043114;28;20124;-74
2022/05/28 11:13:53;;;;;;;;;;;;;;;15.22;42.00;102077.19;5045318;28;20687;-74
2022/05/28 11:16:29;;;;;;;6.18;1.10;;;;;;;15.21;43.13;102078.09;5047218;28;19921;-75
2022/05/28 11:19:02;;;;;;;5.30;1.08;;;;;;;15.26;40.88;102076.22;5036187;28;20115;-74
2022/05/28 11:21:34;;;;;;;4.82;1.00;;;;;;;15.36;42.33;102083.88;5044181;28;20037;-74
2022/05/28 11:24:17;;;;;;;3.05;0.90;;;;;;;15.43;41.24;102072.28;5045395;28;20049;-74
2022/05/28 11:26:51;;;;;;;3.95;0.95;;;;;;;15.47;41.59;102073.94;5043146;28;20033;-74
2022/05/28 11:29:28;;;;;;;8.60;1.00;;;;;;;15.40;41.86;102069.75;5043370;28;20095;-74
2022/05/28 11:31:59;;;;;;;3.00;0.80;;;;;;;15.27;39.84;102062.22;5044958;28;20478;-74
2022/05/28 11:34:40;;;;;;;2.20;0.60;;;;;;;15.27;40.53;102067.47;5044624;28;20399;-74
2022/05/28 11:37:15;;;;;;;4.65;1.08;;;;;;;15.27;40.20;102062.22;5046623;28;20032;-74
2022/05/28 11:40:04;;;;;;;4.68;0.95;;;;;;;15.31;41.25;102056.00;5044966;28;20994;-74